Aérodrome :
LOGIN :

S'inscrire | Disclaimer

   EN    FR    IT 

 










Légende :    VFR   VFR Marginal   IFR   IFR Intensif   IFR Très Intensif
Visi : 
Plafond : 
>= 8 km
>= 3000ft
5 à 8 km
1000 à 3000 ft
1500m à 5 km
500 à 1000 ft
800 à 1500m
200 à 500 ft
< 800m
< 200 ft
Symboles :   Orages  Brouillard  Fortes neiges  Fortes précipitations  Vent > 20 kt
SIGMETs :   Divers  Orages  Givrage  Turbulence  Onde Orograph.  Cendres Volcan.







- Altitude de l'aérodrome : 16 ft
- Code IATA : EAS


LESO - San Sebastian Fuenterrabia

DERNIER METAR :
  • 270300Z AUTO 22004KT 110V260 9999 FEW006 SCT011 BKN020 14/13 Q1019

METARs EXPIRÉS :
  • 270230Z AUTO 24004KT 200V290 9999 SCT010 BKN016 BKN022 14/12 Q1019
  • 270200Z AUTO 27003KT 200V330 9999 VV001 14/12 Q1019
  • 270130Z AUTO VRB04KT 2300 -RA BR SCT011 BKN019 BKN024 13/13 Q1019
  • 270100Z AUTO 23004KT 200V270 3500 -RA BR BKN012 BKN020 OVC036 14/13 Q1020
  • 270030Z AUTO VRB02KT 9999 SCT010 SCT019 BKN030 14/13 Q1020

TAF TAF LESO
Valide du 27 à 00h jusqu'au 28 à 00h UTC


262300Z 2700/2724 27008KT 9999 SCT010 BKN020 TX15/2715Z TN13/2702Z
TEMPO 2700/2720 3000 -DZ BR BKN010
Pas de NOTAMs connus pour ce terrain.



MET'MAP, la Météo Aéronautique d'un coup d'oeil ! - Copyright ORBIFLY Décembre 2007 - Disclaimer

ORBIFLY MET'MAP TEAM :

Programmation & Développement : Alexandra Zaïnal
Conception & Développement : Baudouin d'Aumeries
Co-Programmation & Développement : Marc-Olivier Méhu
Soutien technique & logistique : Manuel Goepfert

Contact : metmap@orbifly.com




SOURCES & CREDITS :

   NOAA